Current | Forecast
Updated: 1:00 PM CEST on October 23, 2018
Observed at Paris / Charles De Gaulle, France
Temperature 14°C
Humidity 59%
Dew Point 6°C
Wind WNW at 26 km/h
Pressure 1032 hPa (Steady)
Conditions Clear
Visibility -
UV N/A
Clouds
Yesterday's Maximum 15°C
Yesterday's Minimum 8°C approx.
Yesterday's Heating Degree Days 12 approx.
Sunrise8:20 AM CEST
Sunset6:42 PM CEST
Moon Rise6:42 PM CEST
Moon Set6:30 AM CEST
Moon PhaseMoon Phase
Waxing Gibbous
Raw METARMETAR LFPG 231100Z 29014KT CAVOK 14/06 Q1032 NOSIG



Units: English | Metric

Find the Weather for any City, State or Zipcode, or Country:

U.S. State List | Severe Weather | Tropical Storms | Ski Conditions
United States | Canada | Central America | South America | Asia | Europe | Australia | Africa | Islands

Weather Underground

© Copyright 2018
The Weather Company, LLC